Time;durP1;ratioP1;P1;durP2;ratioP2;P2;SDS_P1;SDS_P2;PMS_P1;PMS_P2;Temp;Humidity;BMP_temperature;BMP_pressure;BME280_temperature;BME280_humidity;BME280_pressure;Samples;Min_cycle;Max_cycle;Signal;HPM_P1;HPM_P2
2022/10/03 00:00:15;;;;;;;6.73;1.67;;;;;;;21.13;43.48;102635.81;5052634;28;20035;-75
2022/10/03 00:03:11;;;;;;;10.47;2.00;;;;;;;20.66;44.15;102640.47;5052766;28;20032;-75
2022/10/03 00:05:42;;;;;;;8.33;1.37;;;;;;;20.77;43.60;102648.25;5081351;28;20092;-75
2022/10/03 00:08:24;;;;;;;7.53;1.30;;;;;;;20.91;43.21;102640.81;5090273;28;20031;-75
2022/10/03 00:11:05;;;;;;;10.80;1.50;;;;;;;20.97;43.39;102650.41;5090378;28;20107;-75
2022/10/03 00:13:42;;;;;;;4.47;1.50;;;;;;;20.74;43.81;102654.50;5089923;28;20141;-75
2022/10/03 00:16:16;;;;;;;7.23;1.30;;;;;;;20.75;44.09;102655.38;5091540;28;20020;-74
2022/10/03 00:19:06;;;;;;;28.83;1.97;;;;;;;20.81;43.75;102661.44;5089997;28;20114;-74
2022/10/03 00:22:03;;;;;;;10.57;1.47;;;;;;;20.76;44.46;102658.00;5093530;28;20020;-74
2022/10/03 00:25:07;;;;;;;6.40;1.50;;;;;;;20.79;43.57;102668.56;5105755;28;20036;-74
2022/10/03 00:27:42;;;;;;;7.97;1.70;;;;;;;20.90;43.01;102664.78;5086638;28;20110;-75
2022/10/03 00:30:14;;;;;;;7.70;1.43;;;;;;;20.72;43.36;102660.75;5107309;28;20015;-75
2022/10/03 00:32:44;;;;;;;10.45;1.73;;;;;;;20.66;43.75;102657.31;5088363;28;20024;-75
2022/10/03 00:35:55;;;;;;;5.63;1.37;;;;;;;20.55;44.30;102663.78;5105839;28;20024;-75
2022/10/03 00:38:43;;;;;;;7.97;1.67;;;;;;;20.46;43.90;102655.13;5052862;28;20035;-74
2022/10/03 00:41:46;;;;;;;8.77;1.27;;;;;;;20.48;44.02;102658.63;5053133;28;20058;-75
2022/10/03 00:44:30;;;;;;;7.10;1.53;;;;;;;20.66;43.36;102673.25;5095808;28;20054;-75
2022/10/03 00:47:04;;;;;;;11.20;1.70;;;;;;;20.47;43.95;102677.22;5091112;28;20043;-75
2022/10/03 00:49:48;;;;;;;11.10;1.50;;;;;;;20.48;43.66;102685.19;5091304;28;20044;-75
2022/10/03 00:52:41;;;;;;;8.87;1.50;;;;;;;20.34;43.64;102687.25;5088941;28;20073;-74
2022/10/03 00:55:17;;;;;;;7.97;1.73;;;;;;;20.63;43.21;102683.94;5089412;28;20085;-75
2022/10/03 00:58:04;;;;;;;9.17;2.57;;;;;;;20.70;42.85;102692.66;5090367;28;20024;-75
2022/10/03 01:00:33;;;;;;;8.60;1.53;;;;;;;20.73;42.98;102695.28;5090581;28;20027;-75
2022/10/03 01:03:21;;;;;;;7.37;2.17;;;;;;;20.34;44.01;102692.56;5089439;28;20559;-74
2022/10/03 01:06:07;;;;;;;5.67;1.40;;;;;;;20.46;44.02;102697.63;5098298;28;20036;-74
2022/10/03 01:08:42;;;;;;;11.07;1.50;;;;;;;20.36;43.98;102697.84;5087188;28;20029;-74
2022/10/03 01:11:32;;;;;;;7.37;1.57;;;;;;;20.31;44.14;102695.28;5070038;28;20071;-75
2022/10/03 01:14:00;;;;;;;9.53;1.50;;;;;;;20.32;44.00;102699.72;5074403;28;20891;-74
2022/10/03 01:16:52;;;;;;;9.73;1.60;;;;;;;20.16;44.31;102701.81;5091386;28;20400;-74
2022/10/03 01:19:20;;;;;;;3.33;1.47;;;;;;;20.31;43.70;102697.94;5077746;28;20109;-75
2022/10/03 01:22:04;;;;;;;10.37;1.60;;;;;;;20.23;43.95;102699.91;5090667;28;20464;-74
2022/10/03 01:24:44;;;;;;;9.20;2.07;;;;;;;20.33;43.76;102706.75;5089429;28;20028;-75
2022/10/03 01:27:14;;;;;;;10.73;1.73;;;;;;;19.99;44.16;102702.16;5090183;28;20059;-74
2022/10/03 01:30:21;;;;;;;8.80;1.60;;;;;;;20.14;43.92;102703.59;5091695;28;20498;-74
2022/10/03 01:32:58;;;;;;;6.90;1.33;;;;;;;20.39;43.45;102700.41;5090124;28;20036;-74
2022/10/03 01:36:02;;;;;;;8.00;1.50;;;;;;;20.30;43.50;102701.50;5071537;28;20113;-75
2022/10/03 01:38:39;;;;;;;4.40;1.17;;;;;;;20.18;44.19;102697.31;5091273;28;20032;-74
2022/10/03 01:41:10;;;;;;;7.33;1.43;;;;;;;20.08;44.47;102704.59;5091515;28;20038;-74
2022/10/03 01:43:50;;;;;;;6.73;1.80;;;;;;;20.08;44.50;102701.94;5090238;28;20388;-74
2022/10/03 01:46:25;;;;;;;8.17;1.63;;;;;;;20.59;43.42;102706.16;5089211;28;20039;-75
2022/10/03 01:48:54;;;;;;;6.57;1.30;;;;;;;20.53;44.30;102701.00;5088266;28;20051;-75
2022/10/03 01:51:28;;;;;;;11.00;1.63;;;;;;;20.46;44.15;102708.22;5089830;28;20537;-75
2022/10/03 01:54:29;;;;;;;7.40;1.30;;;;;;;20.60;44.06;102699.09;5088400;28;20032;-75
2022/10/03 01:56:57;;;;;;;6.50;1.30;;;;;;;20.79;43.21;102703.09;5089522;28;20035;-75
2022/10/03 01:59:50;;;;;;;4.27;1.27;;;;;;;20.69;43.63;102712.22;5089248;28;20043;-74
2022/10/03 02:02:38;;;;;;;4.38;1.35;;;;;;;21.10;42.60;102707.69;5085830;28;20047;-75
2022/10/03 02:05:22;;;;;;;6.90;1.20;;;;;;;20.66;43.54;102712.22;5100719;27;20028;-75
2022/10/03 02:08:09;;;;;;;3.90;1.40;;;;;;;20.82;43.17;102712.78;5109116;28;20032;-75
2022/10/03 02:10:43;;;;;;;7.90;1.30;;;;;;;20.46;44.00;102712.69;5095026;27;20028;-74
2022/10/03 02:13:17;;;;;;;8.83;1.40;;;;;;;20.73;43.45;102713.88;5079470;28;20070;-74
2022/10/03 02:16:27;;;;;;;9.67;1.67;;;;;;;20.58;43.73;102716.81;5092547;28;20035;-74
2022/10/03 02:19:08;;;;;;;6.47;1.17;;;;;;;20.44;43.95;102715.38;5079065;28;20078;-74
2022/10/03 02:21:46;;;;;;;10.00;1.73;;;;;;;20.61;43.65;102725.63;5092907;28;20101;-74
2022/10/03 02:24:15;;;;;;;8.90;1.33;;;;;;;20.67;43.91;102717.50;5092132;28;20455;-74
2022/10/03 02:27:08;;;;;;;8.80;1.50;;;;;;;20.60;44.49;102707.06;5093800;28;20495;-74
2022/10/03 02:30:11;;;;;;;7.63;1.87;;;;;;;20.57;44.09;102715.09;5093305;28;20418;-75
2022/10/03 02:33:12;;;;;;;12.30;1.55;;;;;;;20.72;43.93;102704.16;5092808;28;20058;-75
2022/10/03 02:35:50;;;;;;;8.73;1.50;;;;;;;21.09;42.91;102705.94;5089193;28;20476;-74
2022/10/03 02:38:37;;;;;;;7.93;1.17;;;;;;;20.67;43.68;102700.69;5083416;28;20107;-75
2022/10/03 02:41:24;;;;;;;1.87;1.00;;;;;;;20.26;44.55;102699.81;5090696;27;20088;-75
2022/10/03 02:44:11;;;;;;;5.43;1.50;;;;;;;20.32;44.34;102710.34;5086230;28;20039;-75
2022/10/03 02:47:15;;;;;;;6.53;1.00;;;;;;;20.40;44.08;102708.38;5091872;28;20032;-75
2022/10/03 02:49:55;;;;;;;4.30;1.40;;;;;;;20.34;44.22;102709.38;5073560;28;20044;-75
2022/10/03 02:52:55;;;;;;;5.13;1.37;;;;;;;20.36;43.64;102709.34;5089674;28;20487;-75
2022/10/03 02:55:41;;;;;;;7.10;1.50;;;;;;;20.26;44.18;102713.97;5089002;28;20120;-75
2022/10/03 02:58:27;;;;;;;8.17;1.10;;;;;;;20.25;43.85;102714.91;5081080;28;20536;-75
2022/10/03 03:01:11;;;;;;;6.07;1.10;;;;;;;20.09;44.64;102719.63;5091996;28;20116;-75
2022/10/03 03:03:51;;;;;;;13.13;1.63;;;;;;;20.43;43.30;102713.63;5093219;28;20111;-75
2022/10/03 03:06:41;;;;;;;7.97;1.47;;;;;;;20.26;43.90;102713.97;5091770;28;20067;-75
2022/10/03 03:09:16;;;;;;;10.57;1.27;;;;;;;20.00;44.35;102726.00;5091829;28;20502;-75
2022/10/03 03:12:08;;;;;;;5.20;1.10;;;;;;;19.98;44.36;102724.28;5085941;28;20488;-74
2022/10/03 03:15:00;;;;;;;8.43;1.40;;;;;;;19.90;44.66;102723.56;5065983;28;20105;-75
2022/10/03 03:17:46;;;;;;;5.37;1.00;;;;;;;19.95;44.58;102722.56;5091495;28;20496;-75
2022/10/03 03:20:19;;;;;;;4.40;0.93;;;;;;;20.45;42.76;102727.72;5091180;28;20483;-75
2022/10/03 03:23:15;;;;;;;7.10;1.63;;;;;;;20.34;42.72;102719.13;5091941;28;20487;-75
2022/10/03 03:25:59;;;;;;;7.50;2.00;;;;;;;20.12;43.38;102724.88;5090543;28;20085;-75
2022/10/03 03:28:47;;;;;;;2.47;1.27;;;;;;;20.13;43.39;102710.69;5092515;28;20024;-74
2022/10/03 03:31:34;;;;;;;4.70;1.40;;;;;;;19.96;44.15;102718.13;5090532;28;20078;-75
2022/10/03 03:34:15;;;;;;;7.33;1.60;;;;;;;20.06;44.10;102725.00;5059631;28;20403;-75
2022/10/03 03:36:53;;;;;;;2.63;1.30;;;;;;;20.08;43.54;102725.84;5091537;28;20392;-74
2022/10/03 03:39:37;;;;;;;8.27;1.33;;;;;;;19.65;44.83;102721.34;5089254;28;20027;-74
2022/10/03 03:42:08;;;;;;;3.33;1.07;;;;;;;19.80;44.30;102733.47;5091332;28;20028;-75
2022/10/03 03:45:06;;;;;;;7.80;1.40;;;;;;;20.02;43.76;102733.03;5091095;28;20080;-74
2022/10/03 03:47:45;;;;;;;4.97;1.53;;;;;;;19.90;44.12;102739.50;5091416;28;20024;-74
2022/10/03 03:50:31;;;;;;;4.67;1.27;;;;;;;19.63;44.24;102739.03;5089402;28;20052;-74
2022/10/03 03:53:20;;;;;;;6.57;1.20;;;;;;;19.61;44.43;102732.91;5089027;28;20098;-75
2022/10/03 03:55:52;;;;;;;6.27;1.13;;;;;;;19.57;44.43;102733.88;5108556;27;20093;-75
2022/10/03 03:58:54;;;;;;;5.87;1.30;;;;;;;19.87;43.88;102740.41;5107798;28;20538;-74
2022/10/03 04:01:23;;;;;;;3.85;1.00;;;;;;;19.73;44.39;102738.00;5091076;28;20024;-75
2022/10/03 04:04:13;;;;;;;7.67;1.20;;;;;;;19.91;43.54;102741.25;5089796;28;20028;-75
2022/10/03 04:06:55;;;;;;;5.50;1.67;;;;;;;19.63;44.44;102741.69;5107737;28;20067;-74
2022/10/03 04:09:48;;;;;;;6.57;1.40;;;;;;;19.83;43.67;102744.03;5102220;28;20028;-75
2022/10/03 04:12:30;;;;;;;;;;;;;;;19.69;44.57;102736.28;5088900;28;20035;-74
2022/10/03 04:15:07;;;;;;;2.53;1.10;;;;;;;19.83;44.25;102744.03;5080360;28;19916;-75
2022/10/03 04:21:20;;;;;;;6.90;1.37;;;;;;;20.11;44.73;102732.88;5091013;28;20445;-75
2022/10/03 04:24:03;;;;;;;6.53;1.30;;;;;;;20.09;44.87;102735.56;5093747;28;20026;-75
2022/10/03 04:26:36;;;;;;;4.32;1.25;;;;;;;20.51;43.96;102732.91;5071864;28;20028;-75
2022/10/03 04:29:15;;;;;;;7.33;1.50;;;;;;;20.72;43.36;102725.41;5087808;28;20028;-75
2022/10/03 04:32:01;;;;;;;5.97;2.33;;;;;;;20.71;43.47;102731.63;5088282;28;20033;-74
2022/10/03 04:34:33;;;;;;;5.63;1.40;;;;;;;20.74;44.08;102734.22;5075970;28;20042;-74
2022/10/03 04:37:16;;;;;;;8.67;1.37;;;;;;;21.43;42.86;102739.66;5089865;28;20596;-75
2022/10/03 04:39:48;;;;;;;3.33;1.47;;;;;;;21.00;43.74;102740.69;5091282;28;20110;-74
2022/10/03 04:42:39;;;;;;;6.20;1.30;;;;;;;21.34;43.25;102745.19;5089365;28;20066;-75
2022/10/03 04:45:27;;;;;;;5.87;1.30;;;;;;;21.19;43.42;102743.78;5091009;28;20102;-75
2022/10/03 04:48:15;;;;;;;8.20;2.43;;;;;;;21.13;43.89;102736.84;5088773;28;20036;-75
2022/10/03 04:50:59;;;;;;;5.40;1.77;;;;;;;21.46;43.07;102747.56;5090117;28;20040;-75
2022/10/03 04:53:42;;;;;;;4.13;1.90;;;;;;;21.41;43.38;102740.59;5090325;28;20031;-75
2022/10/03 04:56:40;;;;;;;5.63;1.67;;;;;;;21.50;43.22;102735.91;5090028;28;20055;-75
2022/10/03 04:59:20;;;;;;;3.27;1.83;;;;;;;21.34;43.45;102750.53;5062314;28;20046;-74
2022/10/03 05:01:48;;;;;;;7.83;2.97;;;;;;;21.68;42.95;102736.38;5090465;28;20094;-74
2022/10/03 05:04:26;;;;;;;5.60;2.25;;;;;;;22.12;42.34;102742.25;5090554;28;20476;-75
2022/10/03 05:07:20;;;;;;;6.07;2.35;;;;;;;21.79;42.92;102744.94;5092069;28;20487;-75
2022/10/03 05:09:55;;;;;;;7.72;2.25;;;;;;;21.79;42.90;102752.94;5089967;28;20032;-74
2022/10/03 05:12:39;;;;;;;13.82;2.63;;;;;;;21.82;43.02;102739.53;5089956;28;20475;-74
2022/10/03 05:15:23;;;;;;;6.90;2.50;;;;;;;21.81;42.89;102751.09;5091939;28;20035;-75
2022/10/03 05:18:24;;;;;;;6.28;2.25;;;;;;;22.06;42.26;102750.41;5089858;28;20035;-75
2022/10/03 05:21:19;;;;;;;8.93;2.63;;;;;;;21.94;42.53;102748.09;5076764;28;20040;-75
2022/10/03 05:24:01;;;;;;;7.22;2.47;;;;;;;21.83;42.68;102759.91;5084685;28;20062;-75
2022/10/03 05:26:42;;;;;;;6.68;2.65;;;;;;;22.03;42.41;102747.84;5090197;28;20051;-75
2022/10/03 05:29:35;;;;;;;12.00;3.35;;;;;;;21.83;43.16;102749.28;5090663;28;20154;-76
2022/10/03 05:32:19;;;;;;;;;;;;;;;21.94;42.93;102753.41;5090766;28;20059;-75
2022/10/03 05:34:56;;;;;;;8.85;3.50;;;;;;;21.94;43.00;102748.09;5089021;28;20008;-75
2022/10/03 05:37:36;;;;;;;10.40;3.28;;;;;;;21.97;43.07;102756.00;5086677;28;20504;-75
2022/10/03 05:40:12;;;;;;;13.23;4.35;;;;;;;21.96;42.81;102754.25;5088019;28;20055;-75
2022/10/03 05:42:54;;;;;;;13.68;4.63;;;;;;;22.44;42.03;102756.44;5092087;28;20036;-75
2022/10/03 05:45:46;;;;;;;15.65;5.25;;;;;;;22.36;42.77;102761.13;5109246;27;20080;-75
2022/10/03 05:48:33;;;;;;;16.25;5.75;;;;;;;22.69;42.21;102769.88;5096782;28;20024;-75
2022/10/03 05:51:19;;;;;;;17.27;9.43;;;;;;;22.58;42.32;102757.84;5092773;28;20047;-74
2022/10/03 05:53:54;;;;;;;13.38;6.07;;;;;;;22.27;42.53;102764.03;5094227;28;20119;-75
2022/10/03 05:56:31;;;;;;;12.60;4.93;;;;;;;22.71;42.03;102764.53;5091398;28;20166;-74
2022/10/03 05:59:21;;;;;;;10.95;2.90;;;;;;;22.56;41.93;102764.97;5092507;27;20036;-74
2022/10/03 06:02:05;;;;;;;5.50;2.30;;;;;;;22.53;42.29;102745.53;5087489;28;20125;-74
2022/10/03 06:04:56;;;;;;;8.00;2.10;;;;;;;22.80;41.87;102758.91;5095295;28;20047;-74
2022/10/03 06:07:30;;;;;;;8.20;2.45;;;;;;;22.50;42.17;102764.28;5116263;27;20031;-75
2022/10/03 06:10:17;;;;;;;4.00;1.63;;;;;;;22.44;42.64;102772.44;5097342;27;20036;-74
2022/10/03 06:12:57;;;;;;;3.92;1.60;;;;;;;22.31;43.16;102768.34;5109673;28;20533;-74
2022/10/03 06:15:41;;;;;;;8.27;1.80;;;;;;;22.86;42.08;102766.72;5111127;28;20776;-74
2022/10/03 06:18:25;;;;;;;6.93;1.58;;;;;;;22.60;41.89;102761.31;5095030;28;20020;-75
2022/10/03 06:21:09;;;;;;;8.38;1.60;;;;;;;22.65;42.68;102765.56;5094281;28;20035;-75
2022/10/03 06:24:04;;;;;;;3.80;1.73;;;;;;;22.69;42.65;102767.22;5094707;28;20074;-75
2022/10/03 06:26:37;;;;;;;9.35;1.58;;;;;;;22.66;42.29;102771.81;5091726;28;20035;-74
2022/10/03 06:29:14;;;;;;;8.23;1.73;;;;;;;22.85;42.12;102780.09;5092987;28;20063;-74
2022/10/03 06:31:58;;;;;;;9.20;1.67;;;;;;;22.94;41.83;102777.13;5096046;28;20028;-74
2022/10/03 06:35:03;;;;;;;6.38;2.45;;;;;;;22.96;42.14;102774.44;5093791;28;20028;-75
2022/10/03 06:37:47;;;;;;;7.35;2.13;;;;;;;23.01;41.96;102775.13;5098197;27;20054;-74
2022/10/03 06:40:31;;;;;;;8.48;2.63;;;;;;;22.92;41.75;102781.66;5082922;28;20119;-75
2022/10/03 06:43:09;;;;;;;9.00;3.08;;;;;;;22.16;43.39;102789.19;5093011;28;20051;-73
2022/10/03 06:46:12;;;;;;;19.63;5.55;;;;;;;22.42;43.40;102784.94;5088817;28;20024;-74
2022/10/03 06:48:46;;;;;;;17.67;8.63;;;;;;;22.85;42.16;102777.44;5106256;28;20064;-74
2022/10/03 06:51:47;;;;;;;12.30;5.65;;;;;;;22.26;43.96;102783.59;5101118;27;20495;-75
2022/10/03 06:54:40;;;;;;;9.95;3.20;;;;;;;22.01;43.98;102786.97;5091124;28;20531;-73
2022/10/03 06:57:48;;;;;;;7.88;2.30;;;;;;;21.26;46.20;102795.03;5091107;28;20036;-74
2022/10/03 07:00:18;;;;;;;7.18;1.95;;;;;;;21.83;45.46;102798.94;5093240;28;20032;-74
2022/10/03 07:03:22;;;;;;;6.53;1.90;;;;;;;22.03;45.14;102793.09;5091935;28;20016;-74
2022/10/03 07:06:06;;;;;;;6.63;2.33;;;;;;;22.09;45.40;102798.28;5092446;28;20051;-74
2022/10/03 07:08:52;;;;;;;3.67;1.92;;;;;;;22.12;45.08;102798.19;5089507;28;20032;-74
2022/10/03 07:11:52;;;;;;;6.75;1.90;;;;;;;23.14;42.78;102805.88;5106740;28;20035;-74
2022/10/03 07:14:34;;;;;;;8.18;2.30;;;;;;;23.21;42.92;102807.41;5075977;28;20103;-74
2022/10/03 07:17:18;;;;;;;11.90;2.17;;;;;;;23.10;42.62;102804.19;5086104;28;20050;-74
2022/10/03 07:19:43;;;;;;;10.85;2.90;;;;;;;22.76;43.98;102809.69;5088617;28;20496;-74
2022/10/03 07:22:46;;;;;;;10.73;2.70;;;;;;;23.05;43.39;102806.13;5088112;28;20127;-74
2022/10/03 07:25:45;;;;;;;6.63;2.47;;;;;;;24.09;41.54;102816.94;5074676;28;20036;-73
2022/10/03 07:28:32;;;;;;;10.90;3.13;;;;;;;23.57;42.26;102824.06;5106922;28;20492;-74
2022/10/03 07:31:26;;;;;;;5.90;2.42;;;;;;;24.04;41.47;102818.88;5092278;28;20397;-75
2022/10/03 07:34:10;;;;;;;10.05;2.47;;;;;;;24.29;41.66;102818.88;5094594;28;20117;-74
2022/10/03 07:40:09;;;;;;;9.55;2.47;;;;;;;23.74;42.34;102820.81;5089207;28;20458;-74
2022/10/03 07:42:46;;;;;;;9.88;2.90;;;;;;;23.48;43.46;102820.78;5101198;28;20458;-74
2022/10/03 07:45:28;;;;;;;11.88;3.08;;;;;;;23.65;43.54;102822.00;5093247;27;20039;-74
2022/10/03 07:48:12;;;;;;;10.70;2.65;;;;;;;23.90;42.99;102827.41;5098257;28;20040;-74
2022/10/03 07:50:50;;;;;;;11.27;2.78;;;;;;;23.68;42.87;102821.91;5089997;28;20052;-75
2022/10/03 07:53:45;;;;;;;8.32;2.33;;;;;;;24.17;42.78;102814.84;5091638;28;20036;-75
2022/10/03 07:56:48;;;;;;;12.88;2.78;;;;;;;23.40;44.28;102814.81;5070913;28;20040;-75
2022/10/03 07:59:33;;;;;;;13.15;3.00;;;;;;;24.16;43.02;102828.28;5091723;28;20047;-75
2022/10/03 08:02:32;;;;;;;12.63;3.13;;;;;;;24.53;42.34;102826.91;5089163;28;20051;-75
2022/10/03 08:05:36;;;;;;;14.60;2.88;;;;;;;23.24;45.54;102826.91;5091275;28;20023;-75
2022/10/03 08:08:34;;;;;;;11.50;2.40;;;;;;;23.60;44.36;102823.94;5080626;28;20035;-75
2022/10/03 08:11:14;;;;;;;10.45;2.45;;;;;;;24.21;43.30;102839.66;5096090;28;20028;-75
2022/10/03 08:14:14;;;;;;;8.88;2.63;;;;;;;24.96;41.91;102832.44;5090564;28;20028;-75
2022/10/03 08:16:49;;;;;;;6.93;2.13;;;;;;;25.09;41.64;102840.81;5078663;28;20086;-75
2022/10/03 08:19:21;;;;;;;8.43;2.22;;;;;;;25.65;40.59;102836.78;5093103;27;20024;-75
2022/10/03 08:22:25;;;;;;;12.35;2.80;;;;;;;25.68;40.03;102839.34;5089847;28;20114;-75
2022/10/03 08:25:06;;;;;;;9.25;2.28;;;;;;;25.63;40.63;102844.03;5057798;28;20036;-76
2022/10/03 08:27:31;;;;;;;7.05;2.47;;;;;;;25.85;39.92;102844.84;5090246;28;20028;-75
2022/10/03 08:30:17;;;;;;;6.53;2.00;;;;;;;24.90;41.71;102853.13;5089566;28;20036;-75
2022/10/03 08:33:03;;;;;;;12.63;2.53;;;;;;;26.10;39.82;102843.78;5089907;28;20024;-75
2022/10/03 08:36:00;;;;;;;12.02;2.58;;;;;;;25.21;41.02;102843.00;5091409;28;20143;-75
2022/10/03 08:38:38;;;;;;;6.65;2.10;;;;;;;25.32;41.39;102845.25;5085212;28;20051;-75
2022/10/03 08:41:12;;;;;;;9.40;1.70;;;;;;;26.28;38.71;102838.56;5088989;28;20312;-75
2022/10/03 08:44:02;;;;;;;10.82;2.67;;;;;;;26.89;38.19;102841.09;5089889;28;20028;-75
2022/10/03 08:47:01;;;;;;;10.32;2.70;;;;;;;26.14;39.17;102842.72;5096945;28;20034;-75
2022/10/03 08:49:29;;;;;;;8.18;2.50;;;;;;;25.67;39.78;102845.63;5090000;28;20048;-75
2022/10/03 08:52:19;;;;;;;9.63;2.20;;;;;;;26.30;38.62;102842.06;5089163;28;20164;-74
2022/10/03 08:55:22;;;;;;;14.32;3.95;;;;;;;26.05;39.68;102843.16;5086947;28;20169;-74
2022/10/03 08:58:08;;;;;;;7.03;1.95;;;;;;;24.75;42.02;102847.53;5089787;28;20085;-75
2022/10/03 09:00:55;;;;;;;11.07;2.40;;;;;;;26.38;39.61;102845.25;5096378;28;20033;-75
2022/10/03 09:04:05;;;;;;;10.77;3.55;;;;;;;24.73;42.18;102844.91;5071395;28;20028;-74
2022/10/03 09:06:39;;;;;;;7.70;1.95;;;;;;;25.60;41.36;102830.78;5071681;28;20085;-74
2022/10/03 09:09:43;;;;;;;9.70;2.22;;;;;;;26.00;40.18;102834.41;5087057;28;20063;-74
2022/10/03 09:12:41;;;;;;;11.80;1.90;;;;;;;25.90;40.29;102839.28;5073334;28;20039;-75
2022/10/03 09:15:54;;;;;;;12.57;2.20;;;;;;;25.79;40.19;102834.41;5094707;28;20114;-74
2022/10/03 09:18:35;;;;;;;13.52;2.75;;;;;;;26.29;39.76;102835.81;5102147;28;20070;-74
2022/10/03 09:21:19;;;;;;;12.52;2.10;;;;;;;25.87;40.35;102840.28;5092227;28;20075;-74
2022/10/03 09:23:55;;;;;;;12.68;2.40;;;;;;;25.52;39.89;102829.28;5092661;28;20515;-74
2022/10/03 09:26:52;;;;;;;12.50;2.17;;;;;;;26.67;38.91;102837.69;5091038;28;20031;-74
2022/10/03 09:29:32;;;;;;;10.07;2.05;;;;;;;26.12;39.79;102828.53;5090500;27;20024;-74
2022/10/03 09:32:16;;;;;;;11.35;2.05;;;;;;;26.73;38.58;102835.56;5102492;27;20032;-74
2022/10/03 09:35:21;;;;;;;10.50;2.03;;;;;;;26.68;38.15;102832.22;5110591;28;20031;-74
2022/10/03 09:38:26;;;;;;;11.85;2.10;;;;;;;26.66;38.24;102833.25;5109984;27;20028;-74
2022/10/03 09:41:03;;;;;;;8.63;1.92;;;;;;;25.18;42.07;102844.03;5109956;27;20492;-73
2022/10/03 09:43:47;;;;;;;9.63;1.95;;;;;;;26.46;39.21;102837.72;5108565;28;20081;-73
2022/10/03 09:46:19;;;;;;;5.78;1.88;;;;;;;27.74;37.02;102830.69;5098199;27;20491;-74
2022/10/03 09:48:57;;;;;;;7.38;1.40;;;;;;;25.52;39.85;102829.28;5090267;28;20028;-74
2022/10/03 09:51:48;;;;;;;7.45;1.70;;;;;;;25.35;40.29;102831.81;5082369;28;20035;-74
2022/10/03 09:54:28;;;;;;;9.50;2.03;;;;;;;27.65;36.51;102823.13;5094198;28;20154;-74
2022/10/03 09:57:20;;;;;;;12.32;1.95;;;;;;;27.50;36.29;102824.75;5110075;28;20074;-74
2022/10/03 10:00:15;;;;;;;7.97;1.77;;;;;;;26.20;38.63;102826.38;5107761;27;20858;-74
2022/10/03 10:03:01;;;;;;;11.05;1.92;;;;;;;25.84;39.62;102834.19;5115439;27;20066;-74
2022/10/03 10:05:42;;;;;;;12.05;1.85;;;;;;;25.21;40.83;102830.53;5105217;27;20123;-73
2022/10/03 10:08:27;;;;;;;10.38;2.20;;;;;;;26.05;39.54;102830.59;5107826;27;20560;-74
2022/10/03 10:11:11;;;;;;;11.55;1.85;;;;;;;27.44;36.34;102825.94;5092662;28;20039;-74
2022/10/03 10:13:55;;;;;;;11.13;2.00;;;;;;;25.80;39.82;102828.13;5092602;28;21503;-74
2022/10/03 10:16:39;;;;;;;12.10;1.70;;;;;;;24.55;41.29;102828.59;5087153;28;20400;-74
2022/10/03 10:19:29;;;;;;;9.32;1.55;;;;;;;25.69;39.29;102825.00;5088876;28;20111;-73
2022/10/03 10:22:25;;;;;;;18.10;3.13;;;;;;;24.12;42.29;102832.84;5093052;28;20039;-73
2022/10/03 10:25:06;;;;;;;12.68;1.70;;;;;;;26.40;38.58;102832.63;5081169;28;20028;-73
2022/10/03 10:28:05;;;;;;;12.18;1.73;;;;;;;25.69;38.93;102831.25;5090191;28;20023;-73
2022/10/03 10:31:08;;;;;;;12.32;2.28;;;;;;;27.22;37.15;102826.97;5092445;28;20149;-73
2022/10/03 10:33:39;;;;;;;13.70;2.35;;;;;;;27.35;36.80;102827.22;5092876;28;20053;-73
2022/10/03 10:36:23;;;;;;;10.27;1.77;;;;;;;27.35;36.74;102827.22;5093966;28;20020;-73
2022/10/03 10:38:55;;;;;;;15.35;2.58;;;;;;;27.35;37.40;102829.06;5092222;28;20023;-73
2022/10/03 10:41:44;;;;;;;8.68;1.75;;;;;;;27.45;37.08;102822.31;5091682;28;20047;-73
2022/10/03 10:44:26;;;;;;;8.75;2.00;;;;;;;27.69;37.09;102832.75;5093194;28;20027;-73
2022/10/03 10:47:12;;;;;;;11.23;2.03;;;;;;;27.20;37.88;102826.19;5108026;28;20377;-73
2022/10/03 10:49:59;;;;;;;7.78;1.98;;;;;;;26.91;38.33;102825.81;5091464;28;20048;-74
2022/10/03 10:52:33;;;;;;;10.50;1.98;;;;;;;27.96;36.75;102818.81;5092461;28;20176;-74
2022/10/03 10:55:03;;;;;;;12.63;2.67;;;;;;;28.41;36.15;102817.31;5103372;27;20039;-74
2022/10/03 10:58:12;;;;;;;9.32;2.25;;;;;;;27.35;37.48;102826.38;5091314;28;20035;-73
2022/10/03 11:01:09;;;;;;;9.60;2.10;;;;;;;27.80;36.70;102825.00;5070559;28;20146;-73
2022/10/03 11:03:44;;;;;;;11.60;1.70;;;;;;;27.75;37.12;102825.25;5069197;28;20519;-73
2022/10/03 11:06:47;;;;;;;10.25;2.10;;;;;;;27.80;37.04;102824.13;5085307;28;20032;-74
2022/10/03 11:09:24;;;;;;;12.15;2.58;;;;;;;27.62;36.57;102817.91;5092802;27;20039;-73
2022/10/03 11:12:09;;;;;;;21.70;4.25;;;;;;;27.73;36.70;102821.75;5106195;28;20031;-74
2022/10/03 11:14:56;;;;;;;9.40;2.17;;;;;;;28.11;36.57;102820.75;5108211;28;20028;-74
2022/10/03 11:17:46;;;;;;;12.25;2.22;;;;;;;27.02;37.84;102819.03;5111207;27;20499;-74
2022/10/03 11:20:42;;;;;;;8.50;1.65;;;;;;;25.62;40.20;102823.53;5091104;28;20035;-73
2022/10/03 11:23:22;;;;;;;9.77;2.08;;;;;;;25.05;42.05;102829.41;5087994;28;20396;-73
2022/10/03 11:26:06;;;;;;;7.55;2.22;;;;;;;25.32;41.44;102826.53;5092367;28;20020;-73
2022/10/03 11:28:59;;;;;;;12.55;2.78;;;;;;;26.16;40.25;102829.25;5092998;28;20035;-73
2022/10/03 11:31:36;;;;;;;;;;;;;;;25.76;41.52;102826.50;5090701;28;20154;-73
2022/10/03 11:34:39;;;;;;;10.30;2.30;;;;;;;26.08;40.76;102826.94;5089476;28;19973;-74
2022/10/03 11:37:42;;;;;;;14.02;2.47;;;;;;;25.99;40.88;102822.78;5093935;27;20051;-74
2022/10/03 11:40:24;;;;;;;12.55;2.05;;;;;;;26.40;39.64;102827.28;5073983;28;20089;-73
2022/10/03 11:42:56;;;;;;;10.60;2.30;;;;;;;26.97;39.08;102813.03;5099349;27;20114;-73
2022/10/03 11:45:50;;;;;;;12.95;2.33;;;;;;;25.59;41.79;102815.63;5092285;28;20020;-73
2022/10/03 11:48:39;;;;;;;17.08;2.33;;;;;;;26.21;41.22;102811.16;5079908;28;20168;-74
2022/10/03 11:51:14;;;;;;;10.65;2.47;;;;;;;26.16;40.17;102814.06;5080784;28;20052;-74
2022/10/03 11:53:48;;;;;;;11.43;2.88;;;;;;;24.97;42.01;102815.47;5087763;28;21939;-73
2022/10/03 11:56:29;;;;;;;12.20;2.13;;;;;;;25.85;40.56;102823.41;5085781;28;20028;-73
2022/10/03 11:59:17;;;;;;;13.15;3.35;;;;;;;25.64;40.81;102816.31;5091899;28;20048;-74
2022/10/03 12:01:45;;;;;;;12.82;2.10;;;;;;;25.26;41.70;102821.44;5090127;28;20039;-74
2022/10/03 12:04:17;;;;;;;13.68;2.42;;;;;;;26.13;39.45;102816.88;5088432;28;20027;-73
2022/10/03 12:09:53;;;;;;;11.88;2.20;;;;;;;26.68;38.32;102818.81;5085842;28;21433;-73
2022/10/03 12:12:42;;;;;;;9.73;3.15;;;;;;;26.87;37.41;102809.91;5083352;28;20032;-73
2022/10/03 12:15:22;;;;;;;10.82;1.77;;;;;;;27.02;37.26;102808.31;5091381;28;20031;-73
2022/10/03 12:18:14;;;;;;;7.53;2.38;;;;;;;25.70;38.51;102808.00;5086401;28;20113;-73
2022/10/03 12:21:24;;;;;;;14.52;1.88;;;;;;;25.96;38.04;102811.38;5065525;28;20059;-73
2022/10/03 12:24:00;;;;;;;9.27;2.08;;;;;;;26.01;38.37;102807.53;5078251;28;20063;-74
2022/10/03 12:27:07;;;;;;;12.27;1.98;;;;;;;25.91;38.53;102808.88;5087959;28;20115;-73
2022/10/03 12:29:37;;;;;;;12.70;2.33;;;;;;;26.39;37.83;102804.09;5077868;28;20092;-74
2022/10/03 12:32:18;;;;;;;9.32;2.53;;;;;;;25.88;38.65;102815.25;5087250;28;20111;-74
2022/10/03 12:35:01;;;;;;;10.70;2.72;;;;;;;25.99;38.69;102795.16;5091595;28;20027;-74
2022/10/03 12:37:46;;;;;;;;;;;;;;;26.44;37.66;102796.72;5089274;28;20038;-74
2022/10/03 12:40:19;;;;;;;11.25;2.13;;;;;;;26.76;37.77;102794.34;5085381;28;19915;-74
2022/10/03 12:43:23;;;;;;;9.48;1.95;;;;;;;26.29;38.33;102792.06;5090207;28;20476;-74
2022/10/03 12:46:13;;;;;;;7.20;1.92;;;;;;;26.48;38.06;102792.94;5090510;28;20378;-74
2022/10/03 12:48:50;;;;;;;14.70;1.98;;;;;;;26.50;37.88;102799.13;5089854;28;20395;-73
2022/10/03 12:51:37;;;;;;;5.43;1.73;;;;;;;25.38;39.66;102796.88;5089126;28;20092;-74
2022/10/03 12:54:44;;;;;;;10.55;1.85;;;;;;;26.22;38.40;102789.66;5090131;28;20505;-73
2022/10/03 12:57:44;;;;;;;10.43;1.90;;;;;;;26.92;37.66;102778.38;5082396;28;20048;-74